Time;durP1;ratioP1;P1;durP2;ratioP2;P2;SDS_P1;SDS_P2;PMS_P1;PMS_P2;Temp;Humidity;BMP_temperature;BMP_pressure;BME280_temperature;BME280_humidity;BME280_pressure;Samples;Min_cycle;Max_cycle;Signal;HPM_P1;HPM_P2
2022/12/18 00:00:23;;;;;;;0.27;0.27;;;0.80;98.10;;;;;;2026555;29;20091;-79
2022/12/18 00:01:32;;;;;;;0.30;0.30;;;0.80;98.20;;;;;;2031068;29;20067;-80
2022/12/18 00:02:33;;;;;;;2.45;0.50;;;0.80;98.10;;;;;;2039449;29;20032;-80
2022/12/18 00:03:35;;;;;;;0.57;0.30;;;0.80;98.10;;;;;;2029836;29;20360;-80
2022/12/18 00:04:35;;;;;;;1.30;0.63;;;0.70;97.90;;;;;;2027884;29;20029;-79
2022/12/18 00:05:36;;;;;;;0.50;0.37;;;0.80;97.90;;;;;;2035560;29;20036;-80
2022/12/18 00:06:37;;;;;;;0.10;0.10;;;0.70;98.00;;;;;;2026434;29;20032;-79
2022/12/18 00:07:38;;;;;;;0.10;0.10;;;0.70;97.80;;;;;;2027507;29;20059;-80
2022/12/18 00:08:39;;;;;;;0.10;0.10;;;0.70;97.70;;;;;;2019311;29;20041;-80
2022/12/18 00:09:40;;;;;;;0.20;0.17;;;0.70;97.80;;;;;;2034434;29;20768;-79
2022/12/18 00:10:41;;;;;;;0.10;0.10;;;0.70;97.70;;;;;;2029431;29;20065;-80
2022/12/18 00:11:41;;;;;;;0.27;0.23;;;0.70;97.70;;;;;;2046677;29;20442;-80
2022/12/18 00:12:42;;;;;;;0.10;0.10;;;0.70;97.60;;;;;;2042551;29;20027;-80
2022/12/18 00:13:44;;;;;;;0.10;0.10;;;0.70;97.70;;;;;;2041317;29;20302;-79
2022/12/18 00:14:45;;;;;;;0.10;0.10;;;0.80;97.90;;;;;;2042463;29;20035;-80
2022/12/18 00:15:45;;;;;;;0.40;0.40;;;0.80;98.00;;;;;;2042435;29;20042;-80
2022/12/18 00:16:46;;;;;;;0.17;0.17;;;0.80;98.00;;;;;;2050497;29;20028;-80
2022/12/18 00:17:47;;;;;;;0.10;0.10;;;0.80;98.00;;;;;;2041895;29;20044;-80
2022/12/18 00:18:50;;;;;;;1.83;0.70;;;0.80;98.00;;;;;;2026913;29;20036;-80
2022/12/18 00:19:51;;;;;;;0.22;0.22;;;0.70;97.80;;;;;;2035783;29;20039;-80
2022/12/18 00:20:51;;;;;;;4.23;0.73;;;0.70;97.80;;;;;;2026979;29;20046;-80
2022/12/18 00:21:52;;;;;;;0.33;0.33;;;0.70;97.80;;;;;;2034733;29;20043;-80
2022/12/18 00:22:53;;;;;;;0.10;0.10;;;0.70;97.60;;;;;;2042615;29;20039;-80
2022/12/18 00:23:54;;;;;;;0.10;0.10;;;0.70;97.70;;;;;;2042877;29;20482;-80
2022/12/18 00:24:55;;;;;;;0.10;0.10;;;0.70;97.70;;;;;;2043515;29;20024;-80
2022/12/18 00:26:03;;;;;;;0.10;0.10;;;0.70;97.80;;;;;;2043567;29;20634;-80
2022/12/18 00:27:05;;;;;;;0.32;0.32;;;0.80;97.90;;;;;;2034683;29;20024;-80
2022/12/18 00:28:06;;;;;;;0.00;0.00;;;0.70;97.80;;;;;;2027606;29;20039;-80
2022/12/18 00:29:15;;;;;;;0.50;0.50;;;0.70;97.90;;;;;;2035476;29;20091;-80
2022/12/18 00:30:17;;;;;;;0.10;0.10;;;0.70;98.00;;;;;;2028616;29;20021;-79
2022/12/18 00:31:23;;;;;;;0.73;0.27;;;0.70;98.00;;;;;;2035385;29;20032;-80
2022/12/18 00:32:26;;;;;;;0.65;0.32;;;0.70;97.90;;;;;;2042662;29;20282;-80
2022/12/18 00:33:27;;;;;;;0.93;0.47;;;0.70;97.80;;;;;;2042243;29;20066;-80
2022/12/18 00:34:28;;;;;;;6.53;0.47;;;0.70;97.90;;;;;;2042996;29;20458;-79
2022/12/18 00:35:29;;;;;;;0.90;0.20;;;0.70;97.90;;;;;;2035362;29;20059;-80
2022/12/18 00:36:33;;;;;;;0.10;0.10;;;0.70;98.00;;;;;;2035014;29;20032;-80
2022/12/18 00:37:34;;;;;;;0.20;0.20;;;0.70;98.00;;;;;;2033217;29;20039;-80
2022/12/18 00:38:35;;;;;;;0.75;0.55;;;0.80;98.30;;;;;;2035087;29;20047;-80
2022/12/18 00:39:36;;;;;;;0.38;0.30;;;0.80;98.00;;;;;;2034450;29;20387;-80
2022/12/18 00:40:37;;;;;;;0.20;0.20;;;0.80;98.00;;;;;;2042905;29;20028;-80
2022/12/18 00:42:57;;;;;;;0.20;0.20;;;0.80;98.00;;;;;;2050260;28;20027;-80
2022/12/18 00:43:58;;;;;;;0.13;0.13;;;0.80;98.00;;;;;;2042932;29;20111;-80
2022/12/18 00:44:58;;;;;;;0.30;0.30;;;0.80;98.10;;;;;;2042759;29;20023;-80
2022/12/18 00:45:59;;;;;;;0.60;0.50;;;0.70;98.00;;;;;;2042879;29;20458;-80
2022/12/18 00:47:00;;;;;;;0.37;0.37;;;0.70;98.00;;;;;;2041691;29;20028;-79
2022/12/18 00:48:01;;;;;;;0.70;0.53;;;0.70;98.00;;;;;;2042914;29;20657;-80
2022/12/18 00:49:02;;;;;;;0.30;0.30;;;0.80;98.10;;;;;;2031492;29;20133;-80
2022/12/18 00:50:03;;;;;;;0.10;0.10;;;0.70;98.10;;;;;;2027197;29;20029;-80
2022/12/18 00:51:04;;;;;;;0.22;0.22;;;0.70;98.10;;;;;;2042884;29;20023;-80
2022/12/18 00:52:05;;;;;;;0.00;0.00;;;0.70;98.10;;;;;;2027896;29;20041;-80
2022/12/18 00:53:06;;;;;;;0.10;0.10;;;0.70;98.10;;;;;;2026076;29;20043;-80
2022/12/18 00:54:06;;;;;;;0.30;0.30;;;0.70;98.10;;;;;;2027217;29;20031;-79
2022/12/18 00:55:08;;;;;;;0.50;0.47;;;0.70;98.10;;;;;;2019382;29;20078;-79
2022/12/18 00:56:09;;;;;;;1.02;0.50;;;0.70;98.20;;;;;;2019349;29;20060;-79
2022/12/18 00:57:10;;;;;;;1.53;0.93;;;0.70;98.30;;;;;;2019366;29;20360;-79
2022/12/18 00:58:12;;;;;;;0.10;0.10;;;0.70;98.20;;;;;;2034224;29;20107;-79
2022/12/18 00:59:12;;;;;;;0.98;0.63;;;0.70;98.10;;;;;;2034006;29;20032;-79
2022/12/18 01:00:15;;;;;;;0.23;0.23;;;0.70;98.20;;;;;;2033160;29;20038;-79
2022/12/18 01:01:16;;;;;;;0.20;0.20;;;0.70;98.20;;;;;;2027141;29;20052;-79
2022/12/18 01:02:17;;;;;;;0.10;0.10;;;0.70;98.20;;;;;;2027295;29;20029;-79
2022/12/18 01:03:18;;;;;;;0.10;0.10;;;0.70;98.20;;;;;;2027088;29;20349;-79
2022/12/18 01:04:19;;;;;;;0.10;0.10;;;0.70;98.20;;;;;;2026878;29;20050;-79
2022/12/18 01:05:20;;;;;;;1.25;1.08;;;0.70;98.20;;;;;;2034893;29;20024;-79
2022/12/18 01:06:20;;;;;;;0.50;0.50;;;0.70;98.20;;;;;;2033679;29;20032;-79
2022/12/18 01:07:21;;;;;;;0.50;0.27;;;0.70;98.30;;;;;;2027050;29;20056;-79
2022/12/18 01:08:22;;;;;;;0.10;0.10;;;0.70;98.30;;;;;;2026974;29;20048;-79
2022/12/18 01:09:23;;;;;;;2.47;0.53;;;0.70;98.30;;;;;;2019232;29;20044;-80
2022/12/18 01:10:26;;;;;;;1.23;0.90;;;0.70;98.30;;;;;;2019373;29;20040;-79
2022/12/18 01:11:27;;;;;;;0.73;0.60;;;0.70;98.30;;;;;;2027070;29;20115;-79
2022/12/18 01:12:27;;;;;;;1.07;0.30;;;0.70;98.30;;;;;;2027028;29;20044;-79
2022/12/18 01:13:28;;;;;;;0.13;0.13;;;0.70;98.20;;;;;;2028702;29;20032;-79
2022/12/18 01:14:29;;;;;;;1.23;0.80;;;0.70;98.20;;;;;;2026898;29;20076;-79
2022/12/18 01:15:29;;;;;;;0.20;0.20;;;0.70;98.20;;;;;;2019337;29;20040;-79
2022/12/18 01:16:30;;;;;;;0.20;0.20;;;0.70;98.20;;;;;;2034674;29;20123;-79
2022/12/18 01:17:31;;;;;;;1.70;0.60;;;0.70;98.10;;;;;;2027330;29;20046;-79
2022/12/18 01:18:31;;;;;;;0.20;0.20;;;0.70;98.10;;;;;;2026824;29;20557;-79
2022/12/18 01:19:33;;;;;;;0.30;0.30;;;0.70;98.20;;;;;;2033106;29;20056;-79
2022/12/18 01:20:33;;;;;;;0.30;0.30;;;0.70;98.20;;;;;;2026928;29;20041;-79
2022/12/18 01:21:34;;;;;;;0.43;0.17;;;0.70;98.10;;;;;;2034806;29;20035;-79
2022/12/18 01:22:38;;;;;;;0.20;0.20;;;0.70;98.20;;;;;;2019565;29;20548;-78
2022/12/18 01:23:39;;;;;;;0.20;0.20;;;0.70;98.20;;;;;;2026827;29;20127;-79
2022/12/18 01:24:39;;;;;;;0.13;0.13;;;0.70;98.20;;;;;;2034663;29;20110;-79
2022/12/18 01:25:40;;;;;;;0.10;0.10;;;0.70;98.10;;;;;;2034687;29;20024;-79
2022/12/18 01:26:44;;;;;;;0.32;0.32;;;0.70;98.20;;;;;;2034005;29;20035;-79
2022/12/18 01:27:44;;;;;;;6.73;0.40;;;0.70;98.20;;;;;;2026398;29;20035;-79
2022/12/18 01:28:45;;;;;;;0.83;0.30;;;0.70;98.20;;;;;;2034691;29;20431;-80
2022/12/18 01:29:47;;;;;;;0.20;0.20;;;0.70;98.10;;;;;;2034852;29;20028;-80
2022/12/18 01:30:47;;;;;;;0.10;0.10;;;0.70;98.20;;;;;;2034760;29;20052;-80
2022/12/18 01:31:48;;;;;;;0.10;0.10;;;0.70;98.30;;;;;;2026316;29;20044;-80
2022/12/18 01:32:49;;;;;;;0.10;0.10;;;0.70;98.30;;;;;;2025540;29;20088;-80
2022/12/18 01:33:51;;;;;;;;;;;0.70;98.30;;;;;;2035209;29;20028;-80
2022/12/18 01:34:53;;;;;;;0.52;0.52;;;0.70;98.20;;;;;;2027468;29;19951;-80
2022/12/18 01:35:54;;;;;;;0.40;0.40;;;0.70;98.30;;;;;;2027027;29;20045;-80
2022/12/18 01:36:55;;;;;;;0.30;0.20;;;0.70;98.30;;;;;;2026944;29;20040;-80
2022/12/18 01:37:56;;;;;;;0.10;0.10;;;0.70;98.20;;;;;;2034209;29;20467;-80
2022/12/18 01:38:56;;;;;;;0.07;0.07;;;0.70;98.30;;;;;;2042454;29;20438;-80
2022/12/18 01:39:57;;;;;;;0.10;0.10;;;0.70;98.20;;;;;;2033155;29;20130;-80
2022/12/18 01:40:59;;;;;;;0.50;0.47;;;0.60;98.10;;;;;;2026844;29;20036;-80
2022/12/18 01:42:02;;;;;;;0.55;0.55;;;0.60;98.10;;;;;;2026894;29;20029;-80
2022/12/18 01:43:03;;;;;;;0.00;0.00;;;0.60;98.10;;;;;;2027056;29;20155;-80
2022/12/18 01:44:42;;;;;;;0.33;0.33;;;0.60;98.10;;;;;;2019173;29;20037;-80
2022/12/18 01:45:43;;;;;;;0.00;0.00;;;0.60;98.20;;;;;;2021208;29;20115;-80
2022/12/18 01:46:43;;;;;;;0.20;0.20;;;0.60;98.20;;;;;;2010449;29;20031;-80
2022/12/18 01:47:49;;;;;;;0.30;0.30;;;0.60;98.20;;;;;;2026753;29;20033;-80
2022/12/18 01:48:57;;;;;;;0.10;0.10;;;0.60;98.20;;;;;;2027749;29;20032;-80
2022/12/18 01:50:08;;;;;;;0.10;0.10;;;0.60;98.20;;;;;;2029291;29;20547;-80
2022/12/18 01:51:10;;;;;;;0.10;0.10;;;0.60;98.30;;;;;;2036219;29;20032;-80
2022/12/18 01:52:11;;;;;;;0.30;0.30;;;0.60;98.30;;;;;;2036313;29;20047;-80
2022/12/18 01:53:22;;;;;;;0.40;0.40;;;0.60;98.30;;;;;;2025601;29;20360;-79
2022/12/18 01:54:22;;;;;;;0.20;0.20;;;0.60;98.30;;;;;;2027669;29;20025;-79
2022/12/18 01:55:26;;;;;;;;;;;0.60;98.20;;;;;;2027061;29;20035;-79
2022/12/18 01:56:27;;;;;;;0.13;0.13;;;0.60;98.30;;;;;;2025359;29;19982;-79
2022/12/18 01:57:28;;;;;;;0.10;0.10;;;0.60;98.30;;;;;;2026745;29;20460;-79
2022/12/18 01:58:53;;;;;;;0.40;0.35;;;0.60;98.30;;;;;;2018902;29;20124;-79
2022/12/18 02:00:00;;;;;;;0.10;0.10;;;0.60;98.30;;;;;;2023968;29;20032;-79
2022/12/18 02:01:01;;;;;;;0.20;0.20;;;0.50;98.20;;;;;;2026581;29;20032;-79
2022/12/18 02:02:03;;;;;;;0.10;0.10;;;0.60;98.30;;;;;;2022465;29;20035;-79
2022/12/18 02:03:04;;;;;;;1.35;0.60;;;0.50;98.20;;;;;;2019367;29;20057;-79
2022/12/18 02:04:23;;;;;;;0.33;0.33;;;0.50;98.20;;;;;;2029190;29;20530;-79
2022/12/18 02:05:43;;;;;;;0.10;0.10;;;0.50;98.10;;;;;;2034546;29;20473;-80
2022/12/18 02:06:45;;;;;;;0.40;0.40;;;0.60;98.20;;;;;;2033455;29;20479;-79
2022/12/18 02:07:57;;;;;;;;;;;0.50;98.20;;;;;;2027247;29;20032;-79
2022/12/18 02:09:22;;;;;;;0.10;0.10;;;0.60;98.20;;;;;;2027775;29;19994;-79
2022/12/18 02:10:35;;;;;;;0.05;0.05;;;0.50;98.20;;;;;;2029351;29;20032;-79
2022/12/18 02:11:59;;;;;;;0.73;0.38;;;0.50;98.40;;;;;;2023962;29;20025;-79
2022/12/18 02:13:26;;;;;;;0.10;0.10;;;0.60;98.30;;;;;;2031548;29;20039;-79
2022/12/18 02:14:38;;;;;;;0.10;0.10;;;0.60;98.30;;;;;;2030080;29;20028;-79
2022/12/18 02:15:50;;;;;;;0.17;0.17;;;0.60;98.30;;;;;;2035866;29;20028;-79
2022/12/18 02:16:59;;;;;;;0.10;0.10;;;0.60;98.30;;;;;;2033959;29;20119;-79
2022/12/18 02:18:39;;;;;;;0.10;0.10;;;0.60;98.30;;;;;;2028210;29;20481;-79
2022/12/18 02:20:02;;;;;;;0.20;0.20;;;0.60;98.20;;;;;;2027571;29;20040;-78
2022/12/18 02:21:18;;;;;;;0.10;0.10;;;0.60;98.30;;;;;;2032422;29;20087;-79
2022/12/18 02:22:51;;;;;;;2.00;0.17;;;0.60;98.20;;;;;;2028361;29;20036;-79
2022/12/18 02:24:07;;;;;;;0.45;0.40;;;0.60;98.20;;;;;;2030726;29;20030;-79
2022/12/18 02:25:26;;;;;;;0.10;0.10;;;0.70;98.60;;;;;;2028419;29;20032;-79
2022/12/18 02:26:55;;;;;;;0.00;0.00;;;0.60;98.30;;;;;;2027853;29;20032;-79
2022/12/18 02:28:01;;;;;;;1.20;1.05;;;0.60;98.10;;;;;;2022803;29;20039;-79
2022/12/18 02:29:08;;;;;;;0.20;0.20;;;0.60;98.10;;;;;;2013008;29;20098;-79
2022/12/18 02:30:10;;;;;;;0.20;0.20;;;0.60;98.20;;;;;;2027356;29;20033;-79
2022/12/18 02:31:19;;;;;;;0.20;0.20;;;0.70;98.30;;;;;;2026682;29;20051;-79
2022/12/18 02:32:25;;;;;;;0.32;0.32;;;0.70;98.30;;;;;;2034214;29;20044;-79
2022/12/18 02:33:28;;;;;;;0.93;0.57;;;0.60;98.30;;;;;;2033193;29;20028;-79
2022/12/18 02:34:36;;;;;;;0.63;0.25;;;0.60;98.30;;;;;;2026910;29;20424;-79
2022/12/18 02:35:40;;;;;;;0.10;0.10;;;0.60;98.30;;;;;;2034297;29;20119;-79
2022/12/18 02:36:44;;;;;;;0.55;0.43;;;0.60;98.40;;;;;;2019125;29;20449;-79
2022/12/18 02:37:47;;;;;;;0.10;0.10;;;0.70;98.40;;;;;;2019444;29;20473;-80
2022/12/18 02:38:48;;;;;;;0.17;0.17;;;0.60;98.40;;;;;;2026883;29;20464;-79
2022/12/18 02:39:54;;;;;;;0.20;0.20;;;0.60;98.40;;;;;;2025257;29;20028;-79
2022/12/18 02:40:57;;;;;;;0.10;0.10;;;0.60;98.30;;;;;;2012515;29;20504;-79
2022/12/18 02:42:02;;;;;;;0.50;0.43;;;0.60;98.40;;;;;;2031896;29;20039;-79
2022/12/18 02:43:14;;;;;;;0.10;0.10;;;0.60;98.70;;;;;;2026448;29;20577;-79
2022/12/18 02:44:15;;;;;;;0.00;0.00;;;0.60;98.40;;;;;;2031031;29;20066;-79
2022/12/18 02:45:17;;;;;;;0.20;0.20;;;0.60;98.50;;;;;;2026820;29;20482;-79
2022/12/18 02:46:32;;;;;;;1.27;0.90;;;0.60;98.50;;;;;;2033167;29;20056;-79
2022/12/18 02:47:39;;;;;;;0.52;0.32;;;0.60;98.40;;;;;;2034215;29;20032;-79
2022/12/18 02:48:40;;;;;;;0.10;0.10;;;0.60;98.40;;;;;;2035073;29;20091;-79
2022/12/18 02:50:12;;;;;;;0.10;0.10;;;0.60;98.40;;;;;;2034118;29;20407;-79
2022/12/18 02:51:30;;;;;;;0.60;0.50;;;0.60;98.50;;;;;;2038230;29;20443;-80
2022/12/18 02:52:36;;;;;;;0.10;0.10;;;0.60;98.40;;;;;;2036881;29;20075;-80
2022/12/18 02:53:56;;;;;;;0.40;0.40;;;0.60;98.50;;;;;;2025836;29;20071;-79
2022/12/18 02:55:21;;;;;;;0.20;0.20;;;0.60;98.50;;;;;;2036692;29;20033;-79
2022/12/18 02:56:56;;;;;;;0.40;0.40;;;0.70;98.70;;;;;;2029876;29;20032;-79
2022/12/18 02:58:12;;;;;;;0.10;0.10;;;0.70;98.70;;;;;;2034159;29;20050;-79
2022/12/18 02:59:21;;;;;;;0.20;0.20;;;0.60;98.50;;;;;;2027901;29;20076;-80
2022/12/18 03:00:53;;;;;;;0.22;0.22;;;0.70;98.50;;;;;;2026935;29;20043;-80
2022/12/18 03:02:07;;;;;;;0.25;0.20;;;0.70;98.50;;;;;;2027581;29;20275;-79
2022/12/18 03:03:19;;;;;;;0.10;0.10;;;0.70;98.50;;;;;;2028111;29;20107;-79
2022/12/18 03:04:26;;;;;;;;;;;0.70;98.30;;;;;;2028382;29;20036;-79
2022/12/18 03:05:32;;;;;;;0.10;0.10;;;0.70;98.30;;;;;;2019374;29;19912;-80
2022/12/18 03:06:40;;;;;;;0.10;0.10;;;0.70;98.40;;;;;;2018893;29;20029;-79
2022/12/18 03:08:05;;;;;;;0.15;0.15;;;0.70;98.30;;;;;;2026860;29;20037;-79
2022/12/18 03:09:15;;;;;;;0.20;0.20;;;0.70;98.30;;;;;;2029931;29;20095;-79
2022/12/18 03:10:23;;;;;;;0.52;0.52;;;0.70;98.20;;;;;;2028325;29;20033;-79
2022/12/18 03:13:07;;;;;;;0.35;0.20;;;0.70;98.50;;;;;;2031738;29;20075;-79
2022/12/18 03:14:13;;;;;;;0.00;0.00;;;0.70;98.20;;;;;;2028678;29;20115;-79
2022/12/18 03:15:18;;;;;;;0.25;0.25;;;0.70;98.20;;;;;;2026880;29;20113;-79
2022/12/18 03:16:28;;;;;;;0.10;0.10;;;0.70;98.20;;;;;;2027647;29;20084;-79
2022/12/18 03:17:31;;;;;;;0.47;0.17;;;0.70;98.20;;;;;;2020308;29;20037;-79
2022/12/18 03:18:53;;;;;;;0.22;0.22;;;0.70;98.30;;;;;;2034406;29;20084;-79
2022/12/18 03:19:58;;;;;;;0.30;0.30;;;0.70;98.30;;;;;;2035944;29;20032;-79
2022/12/18 03:21:04;;;;;;;0.57;0.38;;;0.70;98.30;;;;;;2034017;29;20052;-79
2022/12/18 03:22:08;;;;;;;0.10;0.10;;;0.70;98.30;;;;;;2035121;29;20028;-79
2022/12/18 03:23:22;;;;;;;0.00;0.00;;;0.70;98.30;;;;;;2036750;29;20115;-79
2022/12/18 03:24:26;;;;;;;0.10;0.10;;;0.70;98.30;;;;;;2028663;29;20033;-79
2022/12/18 03:25:28;;;;;;;0.10;0.10;;;0.70;98.30;;;;;;2035919;29;20107;-79
2022/12/18 03:26:30;;;;;;;0.10;0.10;;;0.70;98.30;;;;;;2026938;29;20225;-79
2022/12/18 03:27:38;;;;;;;0.08;0.08;;;0.70;98.30;;;;;;2027134;29;20173;-79
2022/12/18 03:28:47;;;;;;;0.13;0.13;;;0.70;98.30;;;;;;2028821;29;20034;-79
2022/12/18 03:30:10;;;;;;;0.10;0.10;;;0.70;98.30;;;;;;2036608;29;20035;-79
2022/12/18 03:31:14;;;;;;;0.20;0.20;;;0.70;98.40;;;;;;2028962;29;20032;-79
2022/12/18 03:32:23;;;;;;;0.32;0.20;;;0.70;98.40;;;;;;2023755;29;20029;-79
2022/12/18 03:33:34;;;;;;;0.43;0.40;;;0.70;98.40;;;;;;2027921;29;20419;-79
2022/12/18 03:34:38;;;;;;;0.20;0.20;;;0.70;98.30;;;;;;2021081;29;20037;-79
2022/12/18 03:35:43;;;;;;;0.40;0.40;;;0.70;98.40;;;;;;2028357;29;20040;-79
2022/12/18 03:36:45;;;;;;;0.17;0.17;;;0.80;98.40;;;;;;2027245;29;20028;-79
2022/12/18 03:37:48;;;;;;;0.20;0.20;;;0.80;98.40;;;;;;2027950;29;20466;-80
2022/12/18 03:38:48;;;;;;;0.10;0.10;;;0.80;98.40;;;;;;2027698;29;20039;-79
2022/12/18 03:39:50;;;;;;;0.20;0.20;;;0.80;98.40;;;;;;2026589;29;20271;-79
2022/12/18 03:41:02;;;;;;;0.20;0.20;;;0.80;98.50;;;;;;2027563;29;20033;-79
2022/12/18 03:42:29;;;;;;;0.10;0.10;;;0.80;98.40;;;;;;2029577;29;20120;-79
2022/12/18 03:44:08;;;;;;;0.10;0.10;;;0.80;98.40;;;;;;2033654;29;20130;-78
2022/12/18 03:45:23;;;;;;;0.00;0.00;;;0.80;98.40;;;;;;2032485;29;20514;-79
2022/12/18 03:46:38;;;;;;;0.28;0.28;;;0.80;98.40;;;;;;2022317;29;20040;-78
2022/12/18 03:48:05;;;;;;;1.23;0.57;;;0.80;98.40;;;;;;2023155;29;20081;-80
2022/12/18 03:49:19;;;;;;;0.32;0.32;;;0.80;98.40;;;;;;2021661;29;20064;-79
2022/12/18 03:50:29;;;;;;;0.10;0.10;;;0.80;98.40;;;;;;2022597;29;20033;-79
2022/12/18 03:51:44;;;;;;;0.10;0.10;;;0.80;98.30;;;;;;2025609;29;20131;-79
2022/12/18 03:52:54;;;;;;;0.32;0.32;;;0.80;98.40;;;;;;2023323;29;20041;-79
2022/12/18 03:54:00;;;;;;;0.28;0.22;;;0.90;98.40;;;;;;2021030;29;20048;-79
2022/12/18 03:55:08;;;;;;;0.10;0.10;;;0.80;98.40;;;;;;2028594;29;20046;-79
2022/12/18 03:56:09;;;;;;;0.05;0.05;;;0.90;98.40;;;;;;2027826;29;20036;-79
2022/12/18 03:57:22;;;;;;;0.10;0.10;;;0.80;98.40;;;;;;2028032;29;20474;-79
2022/12/18 03:58:27;;;;;;;0.10;0.10;;;0.80;98.40;;;;;;2036002;29;20035;-79
2022/12/18 03:59:39;;;;;;;0.10;0.10;;;0.80;98.50;;;;;;2026745;29;20029;-79
2022/12/18 04:00:40;;;;;;;0.65;0.40;;;0.80;98.40;;;;;;2020146;29;20044;-79
2022/12/18 04:01:48;;;;;;;0.13;0.13;;;0.80;98.50;;;;;;2028359;29;20107;-79
2022/12/18 04:02:52;;;;;;;0.25;0.25;;;0.80;98.40;;;;;;2035234;29;20039;-80
2022/12/18 04:04:01;;;;;;;0.10;0.10;;;0.80;98.40;;;;;;2028018;29;20112;-79
2022/12/18 04:05:06;;;;;;;0.13;0.13;;;0.90;98.50;;;;;;2028115;29;20025;-79
2022/12/18 04:06:09;;;;;;;0.35;0.20;;;0.80;98.40;;;;;;2028428;29;20033;-79
2022/12/18 04:07:14;;;;;;;0.10;0.10;;;0.90;98.40;;;;;;2027904;29;20119;-80
2022/12/18 04:08:16;;;;;;;0.10;0.10;;;0.90;98.40;;;;;;2028178;29;20100;-80
2022/12/18 04:09:25;;;;;;;0.00;0.00;;;0.80;98.50;;;;;;2028561;29;20463;-80
2022/12/18 04:10:27;;;;;;;0.30;0.30;;;0.90;98.40;;;;;;2021167;29;20112;-80
2022/12/18 04:11:28;;;;;;;0.08;0.08;;;0.90;98.50;;;;;;2027667;29;20047;-79
2022/12/18 04:12:29;;;;;;;0.10;0.10;;;0.90;98.50;;;;;;2035223;29;20075;-79
2022/12/18 04:13:38;;;;;;;3.20;0.55;;;0.90;98.40;;;;;;2018370;29;20021;-80
2022/12/18 04:14:42;;;;;;;0.40;0.40;;;0.90;98.50;;;;;;2028889;29;20060;-79
2022/12/18 04:15:44;;;;;;;0.35;0.35;;;0.90;98.50;;;;;;2027360;29;20460;-79
2022/12/18 04:16:48;;;;;;;1.40;1.08;;;0.90;98.50;;;;;;2020591;29;20037;-79
2022/12/18 04:17:51;;;;;;;1.00;0.43;;;0.90;98.50;;;;;;2028254;29;20041;-79
2022/12/18 04:18:55;;;;;;;0.10;0.10;;;0.90;98.60;;;;;;2042466;29;20024;-79
2022/12/18 04:19:58;;;;;;;0.20;0.20;;;0.90;98.90;;;;;;2033530;29;20124;-79
2022/12/18 04:20:59;;;;;;;0.80;0.80;;;0.90;98.60;;;;;;2035469;29;20111;-80
2022/12/18 04:22:00;;;;;;;0.28;0.28;;;0.90;98.60;;;;;;2034575;29;20036;-79
2022/12/18 04:23:02;;;;;;;0.20;0.20;;;0.90;98.60;;;;;;2035188;29;20064;-80
2022/12/18 04:24:03;;;;;;;0.60;0.60;;;0.90;98.60;;;;;;2035066;29;20036;-79
2022/12/18 04:25:04;;;;;;;0.80;0.80;;;0.90;98.60;;;;;;2035119;29;20124;-79
2022/12/18 04:26:13;;;;;;;0.32;0.28;;;0.90;98.70;;;;;;2035043;29;20531;-79
2022/12/18 04:27:34;;;;;;;0.10;0.10;;;1.00;98.60;;;;;;2021567;29;20132;-79
2022/12/18 04:28:36;;;;;;;0.17;0.17;;;0.90;98.60;;;;;;2037979;29;20032;-79
2022/12/18 04:29:37;;;;;;;0.00;0.00;;;1.00;98.60;;;;;;2042787;29;20431;-79
2022/12/18 04:30:38;;;;;;;0.10;0.10;;;0.90;98.60;;;;;;2035135;29;20028;-79
2022/12/18 04:31:39;;;;;;;0.80;0.25;;;0.90;98.60;;;;;;2033649;29;20040;-79
2022/12/18 04:32:40;;;;;;;0.30;0.30;;;1.00;98.70;;;;;;2035212;29;20032;-79
2022/12/18 04:33:42;;;;;;;0.85;0.10;;;0.90;98.70;;;;;;2026619;29;20096;-79
2022/12/18 04:34:44;;;;;;;0.15;0.15;;;1.00;98.70;;;;;;2034199;29;20059;-79
2022/12/18 04:35:45;;;;;;;0.43;0.22;;;1.00;98.70;;;;;;2027484;29;20051;-79
2022/12/18 04:36:46;;;;;;;0.20;0.20;;;1.00;98.70;;;;;;2042443;29;20032;-79
2022/12/18 04:37:47;;;;;;;0.20;0.20;;;1.00;98.80;;;;;;2030473;29;20491;-79
2022/12/18 04:38:49;;;;;;;0.00;0.00;;;1.00;98.70;;;;;;2019909;29;20033;-79
2022/12/18 04:39:52;;;;;;;0.35;0.35;;;1.00;98.80;;;;;;2018655;29;20029;-79
2022/12/18 04:41:00;;;;;;;0.30;0.15;;;1.00;98.80;;;;;;2021693;29;20029;-79
2022/12/18 04:42:01;;;;;;;0.17;0.17;;;1.00;98.80;;;;;;2027221;29;20020;-79
2022/12/18 04:43:03;;;;;;;0.10;0.10;;;1.00;98.90;;;;;;2027176;29;20563;-79
2022/12/18 04:44:04;;;;;;;0.55;0.55;;;0.90;98.80;;;;;;2027203;29;20181;-79
2022/12/18 04:45:05;;;;;;;0.22;0.20;;;1.00;98.90;;;;;;2019572;29;20025;-79
2022/12/18 04:46:07;;;;;;;0.10;0.10;;;1.00;98.80;;;;;;2027310;29;20103;-79
2022/12/18 04:47:08;;;;;;;6.32;1.88;;;1.00;98.80;;;;;;2034107;29;20058;-79
2022/12/18 04:48:09;;;;;;;0.10;0.10;;;1.00;98.90;;;;;;2039922;29;20481;-80
2022/12/18 04:49:10;;;;;;;0.00;0.00;;;1.00;98.80;;;;;;2020292;29;20036;-79
2022/12/18 04:50:11;;;;;;;1.23;0.63;;;1.00;98.90;;;;;;2019752;29;20033;-79
2022/12/18 04:51:12;;;;;;;0.13;0.13;;;1.00;98.90;;;;;;2027112;29;20044;-80
2022/12/18 04:52:13;;;;;;;0.05;0.05;;;1.00;98.90;;;;;;2027033;29;20372;-80
2022/12/18 04:53:14;;;;;;;0.20;0.20;;;1.00;98.90;;;;;;2018429;29;20029;-80
2022/12/18 04:54:14;;;;;;;0.40;0.23;;;1.00;98.90;;;;;;2015620;29;20571;-80
2022/12/18 04:55:15;;;;;;;0.10;0.10;;;1.00;98.90;;;;;;2019381;29;20025;-80
2022/12/18 04:56:16;;;;;;;0.20;0.20;;;1.00;98.90;;;;;;2027133;29;20468;-79
2022/12/18 04:57:20;;;;;;;0.87;0.23;;;1.00;98.90;;;;;;2042068;29;20276;-80
2022/12/18 04:58:20;;;;;;;0.32;0.32;;;1.00;98.90;;;;;;2042660;29;20434;-79
2022/12/18 04:59:21;;;;;;;0.17;0.17;;;1.00;98.90;;;;;;2034790;29;20071;-80
2022/12/18 05:00:22;;;;;;;1.27;1.17;;;1.00;98.90;;;;;;2033853;29;20116;-80
2022/12/18 05:01:23;;;;;;;0.83;0.37;;;1.00;98.90;;;;;;2034905;29;20403;-79
2022/12/18 05:02:23;;;;;;;0.10;0.10;;;1.00;98.90;;;;;;2042788;29;20126;-79
2022/12/18 05:03:24;;;;;;;0.77;0.63;;;1.00;99.00;;;;;;2035966;29;20035;-79
2022/12/18 05:04:25;;;;;;;0.30;0.30;;;1.00;98.90;;;;;;2026870;29;20028;-80
2022/12/18 05:05:26;;;;;;;0.20;0.20;;;1.00;99.00;;;;;;2026962;29;20066;-79
2022/12/18 05:06:26;;;;;;;0.10;0.10;;;1.00;99.00;;;;;;2026018;29;20028;-80
2022/12/18 05:07:27;;;;;;;0.20;0.20;;;1.10;99.00;;;;;;2034747;29;20080;-80
2022/12/18 05:08:28;;;;;;;0.20;0.20;;;1.00;99.00;;;;;;2019380;29;20040;-80
2022/12/18 05:09:28;;;;;;;0.40;0.40;;;1.00;99.00;;;;;;2019301;29;20041;-79
2022/12/18 05:10:29;;;;;;;0.13;0.13;;;1.00;99.30;;;;;;2034924;29;20039;-79
2022/12/18 05:11:30;;;;;;;0.83;0.83;;;1.00;99.00;;;;;;2019279;29;20061;-79
2022/12/18 05:12:31;;;;;;;0.10;0.10;;;1.10;99.00;;;;;;2011550;29;20047;-79
2022/12/18 05:13:32;;;;;;;2.33;1.27;;;1.10;99.10;;;;;;2010590;29;20043;-79
2022/12/18 05:14:33;;;;;;;0.00;0.00;;;1.10;99.00;;;;;;2027124;29;20037;-79
2022/12/18 05:15:34;;;;;;;0.10;0.10;;;1.10;99.00;;;;;;2026821;29;20047;-80
2022/12/18 05:16:35;;;;;;;0.17;0.10;;;1.00;99.00;;;;;;2019210;29;20037;-80
2022/12/18 05:17:36;;;;;;;0.10;0.10;;;1.10;99.10;;;;;;2019048;29;20754;-80
2022/12/18 05:18:37;;;;;;;0.20;0.20;;;1.10;99.10;;;;;;2019146;29;20479;-79
2022/12/18 05:19:37;;;;;;;0.20;0.20;;;1.10;99.10;;;;;;2033034;29;20039;-79
2022/12/18 05:20:38;;;;;;;0.10;0.10;;;1.10;99.10;;;;;;2034702;29;20032;-79
2022/12/18 05:21:39;;;;;;;0.23;0.23;;;1.10;99.10;;;;;;2034779;29;20414;-79
2022/12/18 05:22:39;;;;;;;0.20;0.20;;;1.10;99.10;;;;;;2026780;29;20028;-79
2022/12/18 05:23:40;;;;;;;0.20;0.20;;;1.10;99.10;;;;;;2034862;29;20024;-79
2022/12/18 05:24:41;;;;;;;0.67;0.47;;;1.10;99.10;;;;;;2034767;29;20071;-79
2022/12/18 05:25:41;;;;;;;0.10;0.10;;;1.10;99.10;;;;;;2026844;29;20089;-79
2022/12/18 05:26:42;;;;;;;0.87;0.67;;;1.10;99.10;;;;;;2025743;29;20032;-79
2022/12/18 05:27:43;;;;;;;0.27;0.27;;;1.10;99.10;;;;;;2029590;29;20032;-79
2022/12/18 05:28:44;;;;;;;0.10;0.10;;;1.10;99.10;;;;;;2034706;29;20036;-79
2022/12/18 05:29:45;;;;;;;0.73;0.73;;;1.10;99.10;;;;;;2026852;29;20043;-79
2022/12/18 05:30:53;;;;;;;0.20;0.20;;;1.10;99.10;;;;;;2026580;29;20047;-80
2022/12/18 05:31:54;;;;;;;0.10;0.10;;;1.10;99.10;;;;;;2041637;29;20027;-80
2022/12/18 05:32:55;;;;;;;1.50;0.87;;;1.10;99.10;;;;;;2033915;29;20032;-80
2022/12/18 05:33:56;;;;;;;0.20;0.20;;;1.10;99.10;;;;;;2028768;29;20558;-80
2022/12/18 05:34:57;;;;;;;0.10;0.10;;;1.20;99.10;;;;;;2034713;29;20039;-80
2022/12/18 05:35:59;;;;;;;0.10;0.10;;;1.10;99.20;;;;;;2034934;29;20043;-80
2022/12/18 05:37:00;;;;;;;0.28;0.28;;;1.10;99.10;;;;;;2042576;29;20059;-80
2022/12/18 05:38:01;;;;;;;0.10;0.10;;;1.20;99.10;;;;;;2034627;29;20032;-80
2022/12/18 05:39:02;;;;;;;1.07;0.90;;;1.20;99.10;;;;;;2026824;29;20443;-79
2022/12/18 05:40:04;;;;;;;0.70;0.40;;;1.20;99.10;;;;;;2037644;29;20035;-80
2022/12/18 05:41:05;;;;;;;;;;;1.20;99.10;;;;;;2023377;29;20119;-80
2022/12/18 05:42:06;;;;;;;0.00;0.00;;;1.10;99.10;;;;;;2026882;29;19918;-80
2022/12/18 05:43:06;;;;;;;0.20;0.20;;;1.10;99.10;;;;;;2026759;29;20028;-80
2022/12/18 05:44:07;;;;;;;0.10;0.10;;;1.20;99.20;;;;;;2018821;29;20025;-79
2022/12/18 05:45:08;;;;;;;0.10;0.10;;;1.20;99.20;;;;;;2034545;29;20036;-79
2022/12/18 05:46:13;;;;;;;0.22;0.20;;;1.20;99.20;;;;;;2033837;29;20032;-78